createdAt,value
2023-03-16T00:04:52.288Z,64.78
2023-03-16T00:10:24.296Z,64.75
2023-03-16T00:15:56.666Z,64.81
2023-03-16T00:21:28.915Z,64.84
2023-03-16T00:27:01.082Z,64.98
2023-03-16T00:32:33.285Z,64.86
2023-03-16T00:38:05.600Z,64.95
2023-03-16T00:43:37.683Z,64.90
2023-03-16T00:49:10.074Z,65.00
2023-03-16T00:54:42.471Z,65.05
2023-03-16T01:00:14.813Z,65.21
2023-03-16T01:05:47.000Z,65.28
2023-03-16T01:11:19.213Z,65.43
2023-03-16T01:16:51.534Z,66.51
2023-03-16T01:22:23.943Z,66.52
2023-03-16T01:27:55.960Z,66.67
2023-03-16T01:33:28.212Z,67.17
2023-03-16T01:39:00.508Z,68.31
2023-03-16T01:44:32.996Z,69.38
2023-03-16T01:50:05.086Z,69.24
2023-03-16T01:55:37.369Z,68.73
2023-03-16T02:01:09.669Z,68.59
2023-03-16T02:06:41.849Z,68.44
2023-03-16T02:12:13.865Z,68.32
2023-03-16T02:17:45.608Z,69.44
2023-03-16T02:23:18.132Z,70.68
2023-03-16T02:25:30.264Z,70.34
2023-03-16T02:31:01.587Z,71.02
2023-03-16T02:36:33.346Z,71.34
2023-03-16T02:42:05.308Z,71.24
2023-03-16T02:47:37.413Z,70.73
2023-03-16T02:53:09.867Z,70.73
2023-03-16T02:58:41.965Z,70.93
2023-03-16T03:04:13.502Z,70.68
2023-03-16T03:09:45.651Z,70.70
2023-03-16T03:15:18.006Z,71.09
2023-03-16T03:20:49.865Z,71.25
2023-03-16T03:26:21.588Z,71.29
2023-03-16T03:31:53.447Z,71.11
2023-03-16T03:37:25.748Z,71.33
2023-03-16T03:42:57.971Z,71.58
2023-03-16T03:48:30.251Z,71.65
2023-03-16T03:54:02.359Z,71.67
2023-03-16T03:59:34.397Z,72.22
2023-03-16T04:05:06.749Z,72.44
2023-03-16T04:10:38.891Z,72.80
2023-03-16T04:16:11.515Z,72.88
2023-03-16T04:21:43.462Z,72.67
2023-03-16T04:27:15.226Z,72.53
2023-03-16T04:32:47.573Z,72.46
2023-03-16T04:38:19.852Z,72.46
2023-03-16T04:43:52.138Z,72.68
2023-03-16T04:49:24.707Z,72.54
2023-03-16T04:54:56.690Z,72.47
2023-03-16T05:00:29.098Z,72.74
2023-03-16T05:06:01.349Z,72.71
2023-03-16T05:11:32.975Z,72.74
2023-03-16T05:17:05.294Z,72.74
2023-03-16T05:22:37.424Z,72.73
2023-03-16T05:28:09.093Z,72.90
2023-03-16T05:33:41.140Z,73.25
2023-03-16T05:39:13.327Z,73.47
2023-03-16T05:44:45.687Z,73.88
2023-03-16T05:50:17.794Z,74.36
2023-03-16T05:55:49.661Z,75.44
2023-03-16T06:01:21.862Z,75.68
2023-03-16T06:06:54.328Z,75.17
2023-03-16T06:12:26.358Z,74.57
2023-03-16T06:18:04.078Z,73.27
2023-03-16T06:23:35.818Z,72.65
2023-03-16T06:29:07.648Z,70.63
2023-03-16T06:34:40.257Z,69.25
2023-03-16T06:40:12.209Z,67.29
2023-03-16T06:45:44.135Z,67.50
2023-03-16T06:51:17.606Z,64.83
2023-03-16T06:56:49.861Z,63.40
2023-03-16T07:02:22.167Z,61.18
2023-03-16T07:07:54.218Z,58.64
2023-03-16T07:13:26.174Z,57.55
2023-03-16T07:18:58.223Z,57.43
2023-03-16T07:24:30.225Z,56.90
2023-03-16T07:30:02.242Z,55.89
2023-03-16T07:35:34.239Z,53.40
2023-03-16T07:41:06.066Z,53.49
2023-03-16T07:46:37.680Z,53.21
2023-03-16T07:52:09.817Z,52.58
2023-03-16T07:57:41.620Z,51.50
2023-03-16T08:03:13.375Z,51.50
2023-03-16T08:08:45.087Z,51.05
2023-03-16T08:14:16.826Z,51.45
2023-03-16T08:19:48.458Z,51.13
2023-03-16T08:25:20.817Z,50.65
2023-03-16T08:30:53.093Z,50.54
2023-03-16T08:36:24.929Z,50.11
2023-03-16T08:41:56.901Z,49.92
2023-03-16T08:47:29.164Z,50.74
2023-03-16T08:53:01.456Z,50.96
2023-03-16T08:58:33.951Z,51.77
2023-03-16T09:04:06.268Z,51.49
2023-03-16T09:09:38.046Z,51.75
2023-03-16T09:15:09.861Z,51.68
2023-03-16T09:20:41.636Z,51.40
2023-03-16T09:26:13.800Z,51.95
2023-03-16T09:31:45.918Z,51.72
2023-03-16T09:37:17.653Z,52.07
2023-03-16T09:43:12.856Z,0.00
2023-03-16T09:48:44.759Z,52.10
2023-03-16T09:54:16.542Z,53.34
2023-03-16T09:59:48.122Z,53.67
2023-03-16T10:05:20.150Z,54.68
2023-03-16T10:10:51.905Z,55.55
2023-03-16T10:16:23.881Z,55.68
2023-03-16T10:21:55.908Z,55.38
2023-03-16T10:27:27.742Z,55.41
2023-03-16T10:32:59.617Z,55.91
2023-03-16T10:38:31.915Z,55.25
2023-03-16T10:44:04.246Z,55.62
2023-03-16T10:49:36.357Z,55.59
2023-03-16T10:55:08.350Z,54.92
2023-03-16T11:00:40.326Z,55.70
2023-03-16T11:06:12.074Z,56.34
2023-03-16T11:11:44.110Z,55.37
2023-03-16T11:17:21.921Z,55.61
2023-03-16T11:22:53.610Z,55.81
2023-03-16T11:25:17.828Z,0.00
2023-03-16T11:30:49.567Z,55.29
2023-03-16T11:36:21.566Z,54.84
2023-03-16T11:41:53.844Z,54.45
2023-03-16T11:47:25.776Z,55.16
2023-03-16T11:52:57.376Z,55.64
2023-03-16T11:58:29.357Z,55.86
2023-03-16T12:06:22.866Z,0.00
2023-03-16T12:11:46.877Z,56.15
2023-03-16T12:17:18.805Z,54.64
2023-03-16T12:22:50.711Z,54.47
2023-03-16T12:28:22.502Z,55.32
2023-03-16T12:33:54.272Z,55.39
2023-03-16T12:39:25.928Z,54.76
2023-03-16T12:44:57.854Z,53.45
2023-03-16T12:50:29.758Z,53.60
2023-03-16T12:56:01.521Z,52.68
2023-03-16T13:01:33.432Z,52.61
2023-03-16T13:07:05.599Z,52.70
2023-03-16T13:12:37.261Z,52.91
2023-03-16T13:18:09.347Z,52.13
2023-03-16T13:23:41.299Z,50.61
2023-03-16T13:29:13.092Z,51.49
2023-03-16T13:34:45.136Z,50.74
2023-03-16T13:40:17.067Z,50.76
2023-03-16T13:45:48.793Z,50.76
2023-03-16T13:51:21.190Z,50.76
2023-03-16T13:56:53.039Z,49.26
2023-03-16T14:02:24.776Z,49.50
2023-03-16T14:07:56.516Z,49.97
2023-03-16T14:13:28.291Z,49.52
2023-03-16T14:18:59.898Z,50.16
2023-03-16T14:24:31.262Z,49.81
2023-03-16T14:30:03.098Z,49.39
2023-03-16T14:35:34.704Z,49.64
2023-03-16T14:41:06.341Z,48.67
2023-03-16T14:46:38.283Z,48.56
2023-03-16T14:52:10.265Z,47.65
2023-03-16T14:57:42.002Z,47.69
2023-03-16T15:03:13.845Z,47.83
2023-03-16T15:08:45.668Z,46.88
2023-03-16T15:14:17.302Z,46.48
2023-03-16T15:19:49.260Z,46.64
2023-03-16T15:25:21.150Z,46.79
2023-03-16T15:30:53.085Z,47.23
2023-03-16T15:36:24.638Z,46.91
2023-03-16T15:41:56.389Z,47.18
2023-03-16T15:47:28.416Z,47.16
2023-03-16T15:53:00.752Z,46.50
2023-03-16T15:58:32.774Z,45.97
2023-03-16T16:04:04.890Z,45.88
2023-03-16T16:09:36.611Z,46.37
2023-03-16T16:15:08.392Z,46.47
2023-03-16T16:20:40.163Z,46.57
2023-03-16T16:26:12.183Z,46.51
2023-03-16T16:31:43.641Z,46.31
2023-03-16T16:37:15.556Z,46.40
2023-03-16T16:42:47.347Z,46.60
2023-03-16T16:48:19.283Z,47.38
2023-03-16T16:53:51.120Z,47.63
2023-03-16T16:59:22.721Z,47.80
2023-03-16T17:04:54.671Z,48.16
2023-03-16T17:10:26.407Z,48.64
2023-03-16T17:15:58.192Z,48.81
2023-03-16T17:21:30.495Z,49.26
2023-03-16T17:27:02.820Z,49.51
2023-03-16T17:32:34.872Z,49.90
2023-03-16T17:38:06.728Z,50.12
2023-03-16T17:43:38.707Z,50.52
2023-03-16T17:49:10.831Z,50.79
2023-03-16T17:54:42.982Z,51.16
2023-03-16T18:00:14.710Z,51.34
2023-03-16T18:05:46.795Z,51.79
2023-03-16T18:11:18.914Z,51.97
2023-03-16T18:16:51.194Z,52.28
2023-03-16T18:22:22.920Z,52.54
2023-03-16T18:28:18.065Z,0.00
2023-03-16T18:33:50.133Z,52.96
2023-03-16T18:39:21.857Z,53.33
2023-03-16T18:44:54.268Z,53.63
2023-03-16T18:50:26.316Z,53.97
2023-03-16T18:55:58.161Z,53.85
2023-03-16T19:01:30.642Z,54.09
2023-03-16T19:07:03.181Z,54.24
2023-03-16T19:12:34.890Z,54.40
2023-03-16T19:18:07.023Z,54.52
2023-03-16T19:23:39.365Z,54.56
2023-03-16T19:29:11.415Z,54.62
2023-03-16T19:34:43.579Z,54.78
2023-03-16T19:40:15.406Z,54.99
2023-03-16T19:45:47.234Z,54.96
2023-03-16T19:51:19.484Z,55.03
2023-03-16T19:56:51.499Z,55.36
2023-03-16T20:02:23.567Z,55.41
2023-03-16T20:07:55.361Z,55.67
2023-03-16T20:13:26.644Z,55.96
2023-03-16T20:18:58.702Z,56.08
2023-03-16T20:24:29.851Z,56.34
2023-03-16T20:30:01.632Z,56.37
2023-03-16T20:35:33.314Z,56.99
2023-03-16T20:41:05.228Z,57.24
2023-03-16T20:46:36.797Z,57.41
2023-03-16T20:52:08.909Z,57.58
2023-03-16T20:57:41.083Z,57.54
2023-03-16T21:03:12.367Z,57.76
2023-03-16T21:08:43.805Z,58.14
2023-03-16T21:14:15.588Z,58.44
2023-03-16T21:19:47.186Z,58.60
2023-03-16T21:25:19.067Z,59.02
2023-03-16T21:30:50.975Z,58.85
2023-03-16T21:36:23.430Z,58.89
2023-03-16T21:41:54.894Z,59.11
2023-03-16T21:47:26.948Z,59.37
2023-03-16T21:52:58.780Z,59.32
2023-03-16T21:58:30.579Z,59.59
2023-03-16T22:04:02.088Z,60.17
2023-03-16T22:09:34.226Z,60.71
2023-03-16T22:15:06.241Z,60.71
2023-03-16T22:20:38.321Z,61.11
2023-03-16T22:26:10.347Z,61.17
2023-03-16T22:31:42.033Z,61.11
2023-03-16T22:37:13.828Z,61.09
2023-03-16T22:42:45.786Z,61.33
2023-03-16T22:48:17.567Z,61.66
2023-03-16T22:53:49.162Z,61.69
2023-03-16T22:59:20.982Z,61.63
2023-03-16T23:04:52.829Z,62.13
2023-03-16T23:10:24.823Z,62.19
2023-03-16T23:15:56.354Z,62.30
2023-03-16T23:21:28.151Z,62.32
2023-03-16T23:26:59.754Z,62.61
2023-03-16T23:32:31.798Z,62.66
2023-03-16T23:38:03.734Z,62.95
2023-03-16T23:43:35.933Z,63.10
2023-03-16T23:49:07.402Z,63.13
2023-03-16T23:54:39.736Z,63.16
